Terminal Aerodrome Forecast
Issued by NWS

Home | Current Version | Previous Version | Graphics & Text | Print | Product List | Glossary On
Versions: 1 2 3 4 5 6 7 8 9 10 11 12 13 14 15 16 17 18 19 20
000
FTUS43 KLSX 271121
TAFSUS
TAF
KSUS 271121Z 2712/2812 VRB03KT 6SM BR SCT009 SCT050
      TEMPO 2712/2714 3SM BR
     FM271400 VRB04KT P6SM SCT050 SCT250
     FM280900 VRB03KT 4SM BR SCT250=

USA.gov is the U.S. government's official web portal to all federal, state and local government web resources and services.